Time;durP1;ratioP1;P1;durP2;ratioP2;P2;SDS_P1;SDS_P2;PMS_P1;PMS_P2;Temp;Humidity;BMP_temperature;BMP_pressure;BME280_temperature;BME280_humidity;BME280_pressure;Samples;Min_cycle;Max_cycle;Signal;HPM_P1;HPM_P2
2023/10/05 00:02:12;;;;;;;0.95;0.95;;;8.60;1.00;;;;;;4970253;28;20054;-78
2023/10/05 00:04:41;;;;;;;0.10;0.10;;;8.60;1.00;;;;;;4967846;28;20050;-78
2023/10/05 00:07:22;;;;;;;2.92;1.50;;;8.70;1.00;;;;;;4953785;28;20050;-78
2023/10/05 00:09:49;;;;;;;;;;;8.70;1.00;;;;;;4982258;28;20042;-78
2023/10/05 00:12:24;;;;;;;3.58;1.08;;;8.60;1.00;;;;;;4974313;28;19954;-78
2023/10/05 00:15:14;;;;;;;2.65;1.23;;;8.60;1.00;;;;;;4942606;28;20043;-78
2023/10/05 00:17:41;;;;;;;1.40;1.05;;;8.60;30.40;;;;;;4979288;28;20034;-78
2023/10/05 00:20:33;;;;;;;1.25;1.00;;;8.60;91.30;;;;;;4979155;28;20031;-78
2023/10/05 00:23:03;;;;;;;2.70;1.73;;;8.70;99.90;;;;;;4972814;28;20032;-78
2023/10/05 00:25:32;;;;;;;1.20;1.10;;;8.80;99.90;;;;;;4967332;28;20038;-78
2023/10/05 00:28:06;;;;;;;2.30;1.65;;;8.80;99.90;;;;;;4964805;28;20065;-78
2023/10/05 00:30:34;;;;;;;1.35;0.65;;;8.80;99.90;;;;;;4964807;28;20041;-78
2023/10/05 00:33:04;;;;;;;2.33;0.60;;;8.80;99.90;;;;;;4946909;28;20042;-78
2023/10/05 00:35:33;;;;;;;1.83;0.88;;;8.80;99.90;;;;;;4974644;28;20058;-78
2023/10/05 00:38:12;;;;;;;0.70;0.70;;;8.80;99.90;;;;;;4946506;28;20039;-78
2023/10/05 00:41:01;;;;;;;1.15;0.98;;;8.80;99.90;;;;;;4963582;28;20054;-78
2023/10/05 00:43:28;;;;;;;0.75;0.75;;;8.80;99.90;;;;;;4978715;28;20046;-78
2023/10/05 00:45:57;;;;;;;0.80;0.80;;;8.80;99.90;;;;;;4964934;28;20058;-78
2023/10/05 00:51:23;;;;;;;0.38;0.38;;;8.90;99.90;;;;;;4981800;28;20046;-78
2023/10/05 00:53:52;;;;;;;4.38;1.60;;;8.90;99.90;;;;;;4963109;28;20484;-78
2023/10/05 00:56:22;;;;;;;0.47;0.47;;;8.90;99.90;;;;;;4967389;28;20038;-78
2023/10/05 00:58:55;;;;;;;1.33;0.95;;;8.90;99.90;;;;;;4947950;28;20054;-78
2023/10/05 01:01:26;;;;;;;0.57;0.57;;;8.90;99.90;;;;;;4975447;28;20030;-78
2023/10/05 01:06:32;;;;;;;8.68;1.08;;;8.90;99.90;;;;;;4970560;28;20043;-78
2023/10/05 01:09:04;;;;;;;1.85;1.55;;;8.90;99.90;;;;;;4956038;28;20054;-78
2023/10/05 01:11:43;;;;;;;5.55;0.73;;;9.00;99.90;;;;;;4971654;28;20050;-78
2023/10/05 01:14:10;;;;;;;1.33;1.20;;;9.00;99.90;;;;;;4983087;28;20030;-78
2023/10/05 01:16:37;;;;;;;1.75;1.15;;;9.00;99.90;;;;;;4962304;28;20030;-77
2023/10/05 01:19:06;;;;;;;0.35;0.17;;;9.00;99.90;;;;;;4971948;28;20392;-78
2023/10/05 01:21:34;;;;;;;2.22;1.20;;;9.00;99.90;;;;;;4965517;28;20043;-77
2023/10/05 01:24:04;;;;;;;0.75;0.60;;;9.00;99.90;;;;;;4981742;28;20035;-78
2023/10/05 01:26:37;;;;;;;0.30;0.30;;;9.00;99.90;;;;;;4977104;28;20396;-78
2023/10/05 01:29:04;;;;;;;1.52;0.40;;;9.00;99.90;;;;;;4956053;28;20054;-78
2023/10/05 01:31:32;;;;;;;0.98;0.70;;;9.00;99.90;;;;;;4970516;28;20031;-78
2023/10/05 01:33:59;;;;;;;0.68;0.65;;;9.00;99.90;;;;;;4975934;28;20055;-79
2023/10/05 01:36:25;;;;;;;1.17;1.08;;;8.90;99.90;;;;;;4963545;28;20053;-77
2023/10/05 01:39:01;;;;;;;3.60;2.05;;;9.00;99.90;;;;;;4968654;28;20485;-78
2023/10/05 01:41:28;;;;;;;0.35;0.30;;;9.00;99.90;;;;;;4971184;28;20058;-78
2023/10/05 01:43:55;;;;;;;2.35;1.00;;;9.00;99.90;;;;;;4960321;28;20046;-79
2023/10/05 01:46:23;;;;;;;2.28;1.17;;;9.00;99.90;;;;;;4978483;28;20399;-77
2023/10/05 01:48:51;;;;;;;1.95;0.93;;;9.00;99.90;;;;;;4971897;28;20034;-78
2023/10/05 01:51:23;;;;;;;0.75;0.73;;;9.00;99.90;;;;;;4967377;28;20416;-77
2023/10/05 01:53:59;;;;;;;5.05;1.75;;;9.00;99.90;;;;;;4959857;28;20070;-77
2023/10/05 01:56:25;;;;;;;0.63;0.63;;;9.00;99.90;;;;;;4979769;28;20038;-78
2023/10/05 01:58:55;;;;;;;0.40;0.40;;;9.00;99.90;;;;;;4966528;28;20369;-77
2023/10/05 02:01:21;;;;;;;4.57;1.45;;;9.10;99.90;;;;;;4958000;28;20046;-77
2023/10/05 02:03:53;;;;;;;1.02;0.90;;;9.10;99.90;;;;;;4965105;28;20392;-77
2023/10/05 02:06:19;;;;;;;1.00;0.95;;;9.10;99.90;;;;;;4960289;28;20042;-77
2023/10/05 02:08:45;;;;;;;2.08;1.27;;;9.20;99.90;;;;;;4975577;28;20034;-77
2023/10/05 02:11:23;;;;;;;1.13;0.63;;;9.30;99.90;;;;;;4958192;28;20050;-77
2023/10/05 02:13:49;;;;;;;0.22;0.22;;;9.20;99.90;;;;;;4963813;28;20031;-78
2023/10/05 02:16:20;;;;;;;0.68;0.63;;;9.20;99.90;;;;;;4974961;28;20045;-78
2023/10/05 02:18:47;;;;;;;0.70;0.65;;;9.20;99.90;;;;;;4947862;28;20058;-78
2023/10/05 02:21:19;;;;;;;1.15;0.95;;;9.20;99.90;;;;;;4960308;28;20034;-78
2023/10/05 02:23:49;;;;;;;3.65;2.03;;;9.20;99.90;;;;;;4966227;28;20031;-77
2023/10/05 02:26:28;;;;;;;0.60;0.60;;;9.30;99.90;;;;;;4955718;28;20037;-77
2023/10/05 02:28:55;;;;;;;0.25;0.25;;;9.30;99.90;;;;;;4978272;28;20411;-78
2023/10/05 02:31:28;;;;;;;0.52;0.43;;;9.30;99.90;;;;;;4943765;28;20054;-78
2023/10/05 02:33:58;;;;;;;1.90;1.50;;;9.30;99.90;;;;;;4948089;28;20164;-77
2023/10/05 02:36:27;;;;;;;4.28;1.58;;;9.30;99.90;;;;;;4946177;28;20051;-77
2023/10/05 02:38:54;;;;;;;0.85;0.65;;;9.30;99.90;;;;;;4980875;28;20035;-78
2023/10/05 02:41:25;;;;;;;1.20;0.95;;;9.30;99.90;;;;;;4961512;28;20049;-78
2023/10/05 02:43:53;;;;;;;0.35;0.35;;;9.30;99.90;;;;;;4958625;28;20486;-78
2023/10/05 02:46:22;;;;;;;0.82;0.63;;;9.30;99.90;;;;;;4964448;28;20050;-77
2023/10/05 02:48:49;;;;;;;0.45;0.45;;;9.40;99.90;;;;;;4953409;28;20051;-77
2023/10/05 02:51:18;;;;;;;0.50;0.50;;;9.30;99.90;;;;;;4947109;28;20043;-77
2023/10/05 02:53:46;;;;;;;0.63;0.57;;;9.30;99.90;;;;;;4958610;28;20070;-76
2023/10/05 02:56:22;;;;;;;0.22;0.22;;;9.30;99.90;;;;;;4969929;28;20041;-77
2023/10/05 02:58:52;;;;;;;0.57;0.57;;;9.30;99.90;;;;;;4960166;28;20131;-77
2023/10/05 03:01:18;;;;;;;1.05;1.02;;;9.40;99.90;;;;;;4982223;28;20030;-76
2023/10/05 03:03:46;;;;;;;2.05;1.35;;;9.40;99.90;;;;;;4964322;28;20051;-76
2023/10/05 03:06:12;;;;;;;0.32;0.32;;;9.40;99.90;;;;;;4968912;28;20031;-76
2023/10/05 03:08:42;;;;;;;0.50;0.50;;;9.40;99.90;;;;;;4957773;28;20057;-76
2023/10/05 03:11:08;;;;;;;0.52;0.52;;;9.40;99.90;;;;;;4979353;28;20045;-76
2023/10/05 03:13:37;;;;;;;0.40;0.40;;;9.30;99.90;;;;;;4949598;28;20042;-76
2023/10/05 03:16:10;;;;;;;0.60;0.60;;;9.30;99.90;;;;;;4957593;28;20039;-76
2023/10/05 03:18:42;;;;;;;1.30;1.20;;;9.30;99.90;;;;;;4960574;28;20051;-76
2023/10/05 03:21:13;;;;;;;0.38;0.38;;;9.40;99.90;;;;;;4951046;28;20389;-76
2023/10/05 03:23:41;;;;;;;0.47;0.47;;;9.40;99.90;;;;;;4982731;28;20030;-76
2023/10/05 03:26:10;;;;;;;0.52;0.52;;;9.40;99.90;;;;;;4962085;28;20054;-77
2023/10/05 03:28:37;;;;;;;1.02;0.93;;;9.40;99.90;;;;;;4963717;28;20051;-77
2023/10/05 03:31:14;;;;;;;1.30;0.73;;;9.40;99.90;;;;;;4946496;28;20043;-78
2023/10/05 03:33:42;;;;;;;0.43;0.43;;;9.30;99.90;;;;;;4961804;28;20100;-76
2023/10/05 03:36:15;;;;;;;0.75;0.68;;;9.30;99.90;;;;;;4940375;28;20047;-76
2023/10/05 03:38:42;;;;;;;2.70;1.75;;;9.30;99.90;;;;;;4948360;28;20051;-76
2023/10/05 03:41:16;;;;;;;0.95;0.77;;;9.30;99.90;;;;;;4947427;28;20576;-77
2023/10/05 03:43:45;;;;;;;1.38;1.15;;;9.40;99.90;;;;;;4966936;28;20043;-77
2023/10/05 03:46:12;;;;;;;0.85;0.63;;;9.30;99.90;;;;;;4962414;28;20038;-77
2023/10/05 03:48:38;;;;;;;0.50;0.50;;;9.40;99.90;;;;;;4959716;28;20358;-76
2023/10/05 03:51:19;;;;;;;0.25;0.25;;;9.40;99.90;;;;;;4955264;28;20039;-77
2023/10/05 03:53:48;;;;;;;0.28;0.28;;;9.40;99.90;;;;;;4964030;28;20042;-77
2023/10/05 03:56:19;;;;;;;0.30;0.30;;;9.50;99.90;;;;;;4958165;28;20051;-76
2023/10/05 03:58:47;;;;;;;0.85;0.85;;;9.50;99.90;;;;;;4960017;28;20051;-77
2023/10/05 04:01:15;;;;;;;0.30;0.30;;;9.50;99.90;;;;;;4953737;28;20038;-76
2023/10/05 04:03:44;;;;;;;0.50;0.50;;;9.50;99.90;;;;;;4937148;28;20050;-76
2023/10/05 04:06:26;;;;;;;0.85;0.60;;;9.40;99.90;;;;;;4976727;28;20058;-76
2023/10/05 04:08:59;;;;;;;1.15;0.73;;;9.50;99.90;;;;;;4975948;28;20056;-77
2023/10/05 04:11:26;;;;;;;1.65;0.68;;;9.40;99.90;;;;;;4962987;28;20039;-77
2023/10/05 04:13:54;;;;;;;1.23;1.13;;;9.40;99.90;;;;;;4975319;28;20023;-77
2023/10/05 04:16:33;;;;;;;0.55;0.55;;;9.40;99.90;;;;;;4977525;28;20046;-77
2023/10/05 04:19:04;;;;;;;1.30;0.50;;;9.40;99.90;;;;;;4976079;28;20038;-78
2023/10/05 04:21:33;;;;;;;3.72;0.30;;;9.40;99.90;;;;;;4967898;28;20119;-77
2023/10/05 04:24:00;;;;;;;1.10;0.93;;;9.40;99.90;;;;;;4957422;28;20050;-77
2023/10/05 04:26:37;;;;;;;0.47;0.47;;;9.40;99.90;;;;;;4982408;28;20030;-77
2023/10/05 04:29:04;;;;;;;1.17;1.13;;;9.40;99.90;;;;;;4959218;28;20049;-77
2023/10/05 04:31:32;;;;;;;0.40;0.40;;;9.40;99.90;;;;;;4968583;28;20027;-77
2023/10/05 04:34:00;;;;;;;0.52;0.43;;;9.40;99.90;;;;;;4962030;28;20055;-78
2023/10/05 04:36:26;;;;;;;0.13;0.13;;;9.40;99.90;;;;;;4979774;28;20566;-77
2023/10/05 04:38:54;;;;;;;0.13;0.13;;;9.40;99.90;;;;;;4976702;28;20043;-76
2023/10/05 04:41:26;;;;;;;0.73;0.68;;;9.40;99.90;;;;;;4974053;28;20448;-77
2023/10/05 04:43:57;;;;;;;0.80;0.47;;;9.50;99.90;;;;;;4967727;28;20046;-76
2023/10/05 04:46:24;;;;;;;1.48;1.38;;;9.50;99.90;;;;;;4971346;28;20384;-76
2023/10/05 04:49:12;;;;;;;2.65;1.20;;;9.50;99.90;;;;;;4981175;28;20475;-76
2023/10/05 04:51:38;;;;;;;2.35;1.45;;;9.60;99.90;;;;;;4967864;28;20058;-76
2023/10/05 04:54:07;;;;;;;0.82;0.60;;;9.60;95.70;;;;;;4967177;28;20038;-75
2023/10/05 05:04:28;;;;;;;1.30;1.20;;;9.60;52.50;;;;;;4969634;28;20477;-76
2023/10/05 05:06:55;;;;;;;0.20;0.20;;;9.60;55.70;;;;;;4966859;28;20035;-75
2023/10/05 05:09:28;;;;;;;0.40;0.40;;;9.60;42.50;;;;;;4981857;28;20042;-76
2023/10/05 05:11:56;;;;;;;0.35;0.35;;;9.60;22.40;;;;;;4969533;28;20039;-75
2023/10/05 05:14:23;;;;;;;0.55;0.55;;;9.60;23.40;;;;;;4971477;28;20035;-75
2023/10/05 05:16:52;;;;;;;3.03;1.48;;;9.50;30.60;;;;;;4966027;28;20046;-76
2023/10/05 05:19:18;;;;;;;0.60;0.60;;;9.50;40.20;;;;;;4975556;28;20041;-76
2023/10/05 05:21:45;;;;;;;7.43;1.60;;;9.50;45.40;;;;;;4977381;28;20034;-76
2023/10/05 05:24:13;;;;;;;0.57;0.50;;;9.50;37.60;;;;;;4963342;28;20447;-76
2023/10/05 05:26:39;;;;;;;0.40;0.40;;;9.60;34.60;;;;;;4967383;28;20043;-77
2023/10/05 05:29:05;;;;;;;0.40;0.40;;;9.60;29.90;;;;;;4975317;28;20069;-77
2023/10/05 05:31:32;;;;;;;1.45;0.50;;;9.50;28.00;;;;;;4982160;28;20073;-77
2023/10/05 05:33:59;;;;;;;4.63;1.30;;;9.60;25.50;;;;;;4975028;28;20051;-78
2023/10/05 05:36:25;;;;;;;0.57;0.52;;;9.60;17.90;;;;;;4962585;28;20743;-78
2023/10/05 05:38:51;;;;;;;0.50;0.35;;;9.60;16.60;;;;;;4966069;28;20079;-79
2023/10/05 05:41:19;;;;;;;1.13;0.68;;;9.60;17.90;;;;;;4979627;28;20030;-78
2023/10/05 05:43:45;;;;;;;0.70;0.70;;;9.60;16.60;;;;;;4972990;28;20049;-78
2023/10/05 05:46:12;;;;;;;0.80;0.30;;;9.60;9.40;;;;;;4968462;28;20031;-78
2023/10/05 05:48:42;;;;;;;0.20;0.20;;;9.70;10.30;;;;;;4969525;28;20456;-78
2023/10/05 05:51:14;;;;;;;0.32;0.32;;;9.70;7.60;;;;;;4972430;28;20030;-76
2023/10/05 05:53:46;;;;;;;0.28;0.28;;;9.70;1.00;;;;;;4971743;28;20047;-76
2023/10/05 05:56:16;;;;;;;1.58;0.80;;;9.70;1.00;;;;;;4971697;28;20035;-76
2023/10/05 05:58:46;;;;;;;0.95;0.80;;;9.70;1.00;;;;;;4963205;28;20038;-79
2023/10/05 06:01:15;;;;;;;0.40;0.40;;;9.70;1.00;;;;;;4964676;28;20717;-78
2023/10/05 06:03:43;;;;;;;1.98;1.05;;;9.70;1.00;;;;;;4976607;28;20042;-77
2023/10/05 06:06:10;;;;;;;0.70;0.57;;;9.70;1.00;;;;;;4955621;28;20037;-80
2023/10/05 06:08:36;;;;;;;0.93;0.80;;;9.70;1.00;;;;;;4950140;28;20050;-75
2023/10/05 06:11:08;;;;;;;0.80;0.80;;;9.70;1.00;;;;;;4963426;28;20046;-77
2023/10/05 06:13:37;;;;;;;0.52;0.52;;;9.80;1.00;;;;;;4970766;28;20034;-78
2023/10/05 06:16:09;;;;;;;0.30;0.30;;;9.80;1.00;;;;;;4973197;28;20042;-80
2023/10/05 06:18:37;;;;;;;0.22;0.22;;;9.80;1.00;;;;;;4958189;28;20400;-81
2023/10/05 06:21:04;;;;;;;0.30;0.30;;;9.80;1.00;;;;;;4961823;28;20392;-81
2023/10/05 06:23:33;;;;;;;0.52;0.47;;;9.90;1.00;;;;;;4978365;28;20383;-80
2023/10/05 06:26:00;;;;;;;0.88;0.68;;;9.90;1.00;;;;;;4978798;28;20038;-80
2023/10/05 06:28:27;;;;;;;0.80;0.60;;;10.00;1.00;;;;;;4956676;28;20050;-81
2023/10/05 06:30:53;;;;;;;0.50;0.50;;;10.00;1.00;;;;;;4969008;28;20035;-80
2023/10/05 06:33:20;;;;;;;0.30;0.20;;;10.10;1.00;;;;;;4961391;28;20130;-81
2023/10/05 06:35:47;;;;;;;2.17;0.85;;;10.20;1.00;;;;;;4980005;28;20046;-81
2023/10/05 06:38:14;;;;;;;0.70;0.68;;;10.30;1.00;;;;;;4976476;28;20047;-80
2023/10/05 06:40:40;;;;;;;0.88;0.73;;;10.30;1.00;;;;;;4958909;28;20042;-80
2023/10/05 06:43:06;;;;;;;2.38;0.95;;;10.30;1.00;;;;;;4978299;28;20039;-80
2023/10/05 06:45:32;;;;;;;0.45;0.45;;;10.30;1.00;;;;;;4980705;28;20038;-81
2023/10/05 06:47:58;;;;;;;0.30;0.28;;;10.40;1.00;;;;;;4981964;28;20042;-81
2023/10/05 06:50:24;;;;;;;1.08;0.43;;;10.40;1.00;;;;;;4975605;28;20115;-81
2023/10/05 06:52:52;;;;;;;1.02;0.68;;;10.50;1.00;;;;;;4959953;28;20027;-81
2023/10/05 06:55:21;;;;;;;0.40;0.40;;;10.50;1.00;;;;;;4942803;28;20050;-81
2023/10/05 06:57:50;;;;;;;0.43;0.43;;;10.60;1.00;;;;;;4976462;28;20056;-81
2023/10/05 07:00:21;;;;;;;0.38;0.38;;;10.70;99.90;;;;;;4975797;28;20353;-81
2023/10/05 07:02:53;;;;;;;1.08;0.63;;;10.70;99.90;;;;;;4966763;28;20035;-81
2023/10/05 07:05:20;;;;;;;0.30;0.30;;;10.70;99.90;;;;;;4958623;28;20054;-80
2023/10/05 07:07:46;;;;;;;0.40;0.40;;;10.70;99.90;;;;;;4978154;28;20042;-80
2023/10/05 07:10:14;;;;;;;0.35;0.35;;;10.90;99.90;;;;;;4979336;28;20468;-80
2023/10/05 07:12:46;;;;;;;0.68;0.68;;;11.00;99.90;;;;;;4973638;28;20039;-80
2023/10/05 07:15:14;;;;;;;0.28;0.28;;;11.10;99.90;;;;;;4958663;28;20031;-80
2023/10/05 07:17:41;;;;;;;1.45;0.88;;;11.20;99.90;;;;;;4972635;28;20150;-80
2023/10/05 07:20:16;;;;;;;3.08;0.47;;;11.20;99.90;;;;;;4981079;28;20034;-81
2023/10/05 07:22:44;;;;;;;0.43;0.35;;;11.20;99.90;;;;;;4960568;28;20035;-80
2023/10/05 07:25:12;;;;;;;0.10;0.10;;;11.20;99.90;;;;;;4967984;28;20047;-80
2023/10/05 07:27:39;;;;;;;0.38;0.38;;;11.20;99.90;;;;;;4983693;28;20038;-81
2023/10/05 07:30:08;;;;;;;2.63;0.85;;;11.30;99.90;;;;;;4974028;28;20033;-81
2023/10/05 07:32:34;;;;;;;2.63;0.63;;;11.30;99.90;;;;;;4975736;28;20619;-81
2023/10/05 07:35:01;;;;;;;0.75;0.52;;;11.40;99.90;;;;;;4965966;28;20411;-81
2023/10/05 07:37:27;;;;;;;0.75;0.68;;;11.40;99.90;;;;;;4966303;28;20399;-81
2023/10/05 07:39:55;;;;;;;0.20;0.20;;;11.40;99.90;;;;;;4979791;28;20039;-81
2023/10/05 07:42:22;;;;;;;0.68;0.50;;;11.40;99.90;;;;;;4981568;28;20035;-81
2023/10/05 07:44:48;;;;;;;0.43;0.43;;;11.50;99.90;;;;;;4970156;28;20042;-81
2023/10/05 07:47:15;;;;;;;0.63;0.63;;;11.50;99.90;;;;;;4964479;28;20054;-81
2023/10/05 07:49:41;;;;;;;0.50;0.50;;;11.60;99.90;;;;;;4978748;28;20037;-81
2023/10/05 07:52:09;;;;;;;15.27;0.85;;;11.70;99.90;;;;;;4995988;28;20035;-81
2023/10/05 07:54:40;;;;;;;0.22;0.22;;;11.70;99.90;;;;;;4971151;28;20046;-81
2023/10/05 07:57:10;;;;;;;0.25;0.25;;;11.80;99.90;;;;;;4946984;28;20039;-80
2023/10/05 07:59:41;;;;;;;0.30;0.30;;;11.90;95.00;;;;;;4976192;28;20476;-81
2023/10/05 08:02:10;;;;;;;0.55;0.55;;;12.00;93.70;;;;;;4982217;28;20034;-80
2023/10/05 08:04:37;;;;;;;0.60;0.60;;;12.10;78.40;;;;;;4979662;28;20035;-81
2023/10/05 08:07:04;;;;;;;1.02;0.82;;;12.30;61.90;;;;;;4974455;28;20039;-81
2023/10/05 08:09:30;;;;;;;0.88;0.50;;;12.30;15.70;;;;;;4965550;28;20034;-81
2023/10/05 08:11:59;;;;;;;0.52;0.50;;;12.30;13.10;;;;;;4978660;28;20039;-79
2023/10/05 08:14:26;;;;;;;0.95;0.30;;;12.30;23.70;;;;;;4982975;28;20030;-79
2023/10/05 08:16:55;;;;;;;0.75;0.60;;;12.40;5.10;;;;;;4982270;28;20392;-80
2023/10/05 08:19:24;;;;;;;3.53;1.92;;;12.50;5.00;;;;;;4964058;28;20047;-81
2023/10/05 08:21:55;;;;;;;8.10;0.82;;;12.60;1.00;;;;;;4979214;28;20392;-80
2023/10/05 08:24:23;;;;;;;0.17;0.17;;;12.80;1.00;;;;;;4982453;28;20045;-81
2023/10/05 08:26:53;;;;;;;2.00;1.70;;;13.10;1.00;;;;;;4971650;28;20039;-78
2023/10/05 08:29:22;;;;;;;1.20;1.00;;;13.40;1.00;;;;;;4962756;28;20110;-79
2023/10/05 08:31:54;;;;;;;2.22;0.95;;;13.60;1.00;;;;;;4974977;28;20420;-79
2023/10/05 08:34:20;;;;;;;0.30;0.30;;;13.80;1.00;;;;;;4981750;28;20050;-79
2023/10/05 08:36:53;;;;;;;0.82;0.82;;;14.00;99.90;;;;;;4978572;28;20056;-79
2023/10/05 08:39:24;;;;;;;0.50;0.50;;;13.90;99.90;;;;;;4966877;28;20039;-79
2023/10/05 08:41:54;;;;;;;1.05;0.73;;;14.10;99.90;;;;;;4970413;28;20041;-79
2023/10/05 08:44:27;;;;;;;1.15;0.25;;;14.30;99.90;;;;;;4978282;28;20038;-79
2023/10/05 08:46:58;;;;;;;0.95;0.93;;;14.50;99.90;;;;;;4978400;28;20050;-79
2023/10/05 08:49:24;;;;;;;;;;;14.80;99.90;;;;;;4967595;28;20047;-80
2023/10/05 08:51:52;;;;;;;1.02;0.93;;;14.90;99.90;;;;;;4967136;28;19906;-79
2023/10/05 08:54:21;;;;;;;0.40;0.40;;;14.90;99.90;;;;;;4971972;28;20497;-79
2023/10/05 08:56:48;;;;;;;1.70;1.17;;;15.00;99.90;;;;;;4963677;28;20049;-79
2023/10/05 08:59:15;;;;;;;1.77;1.17;;;15.20;99.90;;;;;;4970160;28;20054;-80
2023/10/05 09:01:42;;;;;;;0.75;0.57;;;15.50;99.90;;;;;;4965018;28;20361;-79
2023/10/05 09:06:47;;;;;;;0.40;0.40;;;15.90;99.90;;;;;;4976695;28;20041;-79
2023/10/05 09:09:28;;;;;;;0.63;0.63;;;16.10;99.90;;;;;;4972307;28;20039;-79
2023/10/05 09:11:57;;;;;;;1.73;0.95;;;16.40;99.90;;;;;;4963348;28;20027;-79
2023/10/05 09:14:38;;;;;;;1.45;0.77;;;16.40;99.90;;;;;;4973409;28;20476;-79
2023/10/05 09:17:08;;;;;;;7.82;2.20;;;16.50;99.90;;;;;;4978223;28;20034;-79
2023/10/05 09:19:37;;;;;;;0.30;0.30;;;16.60;99.90;;;;;;4972350;28;20051;-80
2023/10/05 09:24:36;;;;;;;1.92;0.57;;;16.60;99.90;;;;;;4952148;28;20035;-79
2023/10/05 09:27:17;;;;;;;1.55;1.27;;;16.50;99.90;;;;;;4974666;28;20034;-80
2023/10/05 09:29:44;;;;;;;2.30;0.43;;;16.50;99.90;;;;;;4973885;28;20030;-79
2023/10/05 09:32:22;;;;;;;2.00;0.85;;;16.50;99.90;;;;;;4964971;28;20050;-79
2023/10/05 09:34:51;;;;;;;1.02;0.45;;;16.70;99.90;;;;;;4963103;28;20062;-79
2023/10/05 09:37:23;;;;;;;0.63;0.52;;;16.90;99.00;;;;;;4963835;28;20035;-79
2023/10/05 09:39:53;;;;;;;0.38;0.22;;;17.00;95.70;;;;;;4949374;28;20043;-80
2023/10/05 09:42:28;;;;;;;3.30;0.68;;;17.20;85.30;;;;;;4973175;28;20039;-81
2023/10/05 09:44:57;;;;;;;1.58;0.40;;;17.10;59.00;;;;;;4965857;28;20041;-79
2023/10/05 09:47:33;;;;;;;3.88;1.27;;;17.00;43.90;;;;;;4971822;28;20027;-80
2023/10/05 09:50:00;;;;;;;1.10;0.43;;;16.90;46.90;;;;;;4978125;28;20042;-80
2023/10/05 09:52:37;;;;;;;0.47;0.40;;;16.90;76.40;;;;;;4964904;28;20046;-79
2023/10/05 09:55:05;;;;;;;0.30;0.30;;;17.00;66.80;;;;;;4965075;28;20107;-80
2023/10/05 09:57:41;;;;;;;1.17;0.43;;;17.20;60.70;;;;;;4969124;28;20030;-79
2023/10/05 10:00:30;;;;;;;2.20;0.82;;;17.30;41.60;;;;;;4981939;28;20399;-79
2023/10/05 10:03:01;;;;;;;6.70;0.80;;;17.20;63.90;;;;;;4970435;28;20050;-79
2023/10/05 10:05:36;;;;;;;2.78;0.35;;;17.10;27.50;;;;;;4967967;28;20042;-79
2023/10/05 10:08:21;;;;;;;6.32;0.50;;;17.30;61.90;;;;;;4974556;28;20035;-79
2023/10/05 10:11:01;;;;;;;0.40;0.38;;;17.50;44.90;;;;;;4963707;28;20047;-79
2023/10/05 10:13:48;;;;;;;0.47;0.40;;;17.70;20.30;;;;;;4978577;28;20034;-79
2023/10/05 10:16:17;;;;;;;1.38;1.27;;;17.70;1.40;;;;;;4970971;28;20034;-79
2023/10/05 10:18:44;;;;;;;0.30;0.30;;;17.60;8.00;;;;;;4963998;28;20046;-79
2023/10/05 10:21:24;;;;;;;4.13;1.20;;;17.50;1.00;;;;;;4982326;28;20367;-80
2023/10/05 10:24:00;;;;;;;0.20;0.10;;;17.20;1.90;;;;;;4968582;28;20046;-80
2023/10/05 10:26:26;;;;;;;1.65;0.55;;;16.80;31.00;;;;;;4957201;28;20039;-80
2023/10/05 10:31:25;;;;;;;1.30;1.20;;;16.80;28.60;;;;;;4978622;28;20039;-80
2023/10/05 10:33:52;;;;;;;0.20;0.20;;;16.90;54.20;;;;;;4974798;28;20055;-80
2023/10/05 10:36:23;;;;;;;2.58;0.80;;;17.20;36.30;;;;;;4969357;28;20035;-80
2023/10/05 10:38:50;;;;;;;1.52;0.63;;;17.50;1.00;;;;;;4963882;28;20050;-80
2023/10/05 10:41:18;;;;;;;1.35;0.57;;;17.60;1.00;;;;;;4978981;28;20622;-80
2023/10/05 10:43:53;;;;;;;1.52;1.10;;;17.20;1.00;;;;;;4977556;28;20041;-80
2023/10/05 10:46:20;;;;;;;0.73;0.73;;;17.10;1.00;;;;;;4972730;28;20457;-80
2023/10/05 10:48:57;;;;;;;0.20;0.20;;;17.30;1.00;;;;;;4953966;28;20046;-80
2023/10/05 10:51:31;;;;;;;0.43;0.43;;;17.30;1.00;;;;;;4973911;28;20041;-80
2023/10/05 10:54:08;;;;;;;0.90;0.57;;;17.40;1.00;;;;;;4976440;28;20087;-80
2023/10/05 10:56:42;;;;;;;2.40;0.73;;;17.60;1.00;;;;;;4978611;28;20396;-80
2023/10/05 10:59:11;;;;;;;0.10;0.10;;;17.50;1.00;;;;;;4962308;28;20036;-79
2023/10/05 11:01:43;;;;;;;0.40;0.40;;;17.30;1.00;;;;;;4962916;28;20461;-80
2023/10/05 11:04:31;;;;;;;1.75;1.27;;;17.30;1.00;;;;;;4973417;28;20038;-80
2023/10/05 11:07:05;;;;;;;0.90;0.75;;;17.30;1.00;;;;;;4977664;28;20396;-80
2023/10/05 11:09:48;;;;;;;0.28;0.28;;;17.30;1.00;;;;;;4979422;28;20050;-80
2023/10/05 11:12:22;;;;;;;0.10;0.10;;;17.20;1.00;;;;;;4961050;28;20034;-80
2023/10/05 11:14:56;;;;;;;0.20;0.20;;;17.20;1.00;;;;;;4968655;28;20043;-79
2023/10/05 11:17:32;;;;;;;0.75;0.75;;;17.20;1.00;;;;;;4980530;28;20034;-79
2023/10/05 11:20:14;;;;;;;0.22;0.22;;;17.30;1.00;;;;;;4975853;28;20042;-79
2023/10/05 11:22:42;;;;;;;0.10;0.10;;;17.40;1.00;;;;;;4965412;28;20059;-79
2023/10/05 11:25:15;;;;;;;0.30;0.30;;;17.30;1.00;;;;;;4982799;28;20082;-80
2023/10/05 11:27:44;;;;;;;0.52;0.52;;;17.20;99.90;;;;;;4980844;28;20027;-79
2023/10/05 11:30:18;;;;;;;1.17;0.57;;;17.30;1.00;;;;;;4976866;28;20476;-80
2023/10/05 11:32:54;;;;;;;1.83;1.00;;;17.30;1.00;;;;;;4944308;28;20047;-79
2023/10/05 11:35:40;;;;;;;0.10;0.10;;;17.20;1.00;;;;;;4969717;28;20073;-80
2023/10/05 11:38:06;;;;;;;0.80;0.32;;;17.20;1.00;;;;;;4982080;28;20451;-81
2023/10/05 11:40:37;;;;;;;1.38;0.40;;;17.20;1.00;;;;;;4970672;28;20035;-80
2023/10/05 11:43:12;;;;;;;0.47;0.30;;;17.10;1.00;;;;;;4970367;28;20036;-80
2023/10/05 11:45:38;;;;;;;0.43;0.43;;;17.00;1.00;;;;;;4979307;28;20469;-81
2023/10/05 11:48:12;;;;;;;2.40;1.10;;;17.00;1.00;;;;;;4982676;28;20828;-80
2023/10/05 11:50:51;;;;;;;0.30;0.30;;;17.00;1.00;;;;;;4956984;28;20039;-80
2023/10/05 11:53:20;;;;;;;0.20;0.20;;;17.00;1.00;;;;;;4955966;28;20392;-80
2023/10/05 11:55:49;;;;;;;0.15;0.15;;;17.00;1.00;;;;;;4973629;28;20039;-80
2023/10/05 11:58:22;;;;;;;0.27;0.27;;;16.90;1.00;;;;;;4974636;28;20507;-81
2023/10/05 12:00:48;;;;;;;0.20;0.10;;;16.90;1.00;;;;;;4981089;28;20038;-80
2023/10/05 12:03:16;;;;;;;6.32;0.50;;;16.90;1.00;;;;;;4965374;28;20061;-80
2023/10/05 12:05:42;;;;;;;0.15;0.15;;;16.90;1.00;;;;;;4967906;28;20083;-81
2023/10/05 12:08:12;;;;;;;0.10;0.10;;;16.90;1.00;;;;;;4983829;28;20037;-80
2023/10/05 12:10:39;;;;;;;0.75;0.32;;;16.90;1.00;;;;;;4983219;28;20034;-80
2023/10/05 12:13:05;;;;;;;0.20;0.20;;;16.90;1.00;;;;;;4968555;28;20039;-81
2023/10/05 12:15:32;;;;;;;1.77;0.70;;;16.80;1.00;;;;;;4964136;28;20045;-80
2023/10/05 12:18:07;;;;;;;1.02;0.38;;;16.90;1.00;;;;;;4985540;28;20491;-80
2023/10/05 12:20:33;;;;;;;0.40;0.35;;;17.00;1.00;;;;;;4968618;28;20357;-80
2023/10/05 12:22:59;;;;;;;0.20;0.20;;;17.00;1.00;;;;;;4973940;28;20046;-80
2023/10/05 12:25:27;;;;;;;0.30;0.30;;;17.00;1.00;;;;;;4963021;28;20038;-80
2023/10/05 12:27:53;;;;;;;0.10;0.10;;;16.90;1.00;;;;;;4967837;28;20050;-80
2023/10/05 12:30:21;;;;;;;2.17;0.65;;;16.90;1.00;;;;;;4976890;28;20534;-80
2023/10/05 12:32:47;;;;;;;0.52;0.28;;;16.80;1.00;;;;;;4963682;28;20058;-81
2023/10/05 12:35:13;;;;;;;0.17;0.17;;;16.80;1.00;;;;;;4969323;28;20046;-80
2023/10/05 12:37:41;;;;;;;0.10;0.10;;;16.80;1.00;;;;;;4968414;28;20043;-79
2023/10/05 12:43:15;;;;;;;0.95;0.57;;;16.90;1.00;;;;;;4930558;28;20397;-79
2023/10/05 12:45:44;;;;;;;0.52;0.17;;;16.80;1.00;;;;;;4946803;28;20469;-79
2023/10/05 12:48:11;;;;;;;0.20;0.20;;;16.70;1.00;;;;;;4963301;28;20453;-80
2023/10/05 12:50:39;;;;;;;0.10;0.10;;;16.80;1.00;;;;;;4986519;28;20034;-80
2023/10/05 12:53:05;;;;;;;0.75;0.30;;;16.80;1.00;;;;;;4976075;28;20053;-80
2023/10/05 12:55:32;;;;;;;0.30;0.30;;;16.80;1.00;;;;;;4972016;28;20057;-80
2023/10/05 12:57:59;;;;;;;2.35;1.25;;;16.90;1.00;;;;;;4969908;28;20038;-80
2023/10/05 13:00:34;;;;;;;0.30;0.30;;;16.80;1.00;;;;;;4965126;28;20065;-80
2023/10/05 13:03:00;;;;;;;3.70;0.32;;;16.80;1.00;;;;;;4987504;28;20051;-80
2023/10/05 13:05:43;;;;;;;0.20;0.20;;;16.80;1.00;;;;;;4981138;28;20031;-79
2023/10/05 13:08:16;;;;;;;0.45;0.35;;;16.80;1.00;;;;;;4967416;28;20039;-80
2023/10/05 13:10:43;;;;;;;0.35;0.35;;;16.90;1.00;;;;;;4944468;28;20142;-80
2023/10/05 13:13:20;;;;;;;0.75;0.75;;;16.80;1.00;;;;;;4981758;28;20376;-80
2023/10/05 13:15:46;;;;;;;0.30;0.20;;;16.90;1.00;;;;;;4959252;28;20145;-80
2023/10/05 13:18:18;;;;;;;0.10;0.10;;;16.90;1.00;;;;;;4968233;28;20049;-80
2023/10/05 13:20:47;;;;;;;0.20;0.20;;;16.90;1.00;;;;;;4964908;28;20054;-80
2023/10/05 13:23:18;;;;;;;3.47;0.30;;;17.00;1.00;;;;;;4982162;28;20042;-80
2023/10/05 13:25:48;;;;;;;0.20;0.20;;;16.90;1.00;;;;;;4973602;28;20030;-81
2023/10/05 13:28:16;;;;;;;0.10;0.10;;;16.90;1.00;;;;;;4964804;28;20408;-80
2023/10/05 13:30:47;;;;;;;0.80;0.30;;;16.90;1.00;;;;;;4953949;28;20043;-80
2023/10/05 13:33:21;;;;;;;3.40;1.27;;;16.80;1.00;;;;;;4960890;28;20038;-80
2023/10/05 13:35:50;;;;;;;0.65;0.55;;;16.70;1.00;;;;;;4962060;28;20046;-81